Svyataya Anna — UUCV — position and weather

sailwx.info

Track history (hours):
 
Tides and Currents Weather Stations Pressure Air Temp Water Temp Dewpoint Dewpoint Depression Visibility Wind Speed Wind Dir Waves Ship Positions

Svyataya Anna

Last reported at 2016-Jul-18 03:11 UTC. Time now 2016-Jul-23 13:12 UTC.
Position N 46°52' E 037°25'.

Length 93 m; draft 3.2 m.

Type: Cargo ship. MMSI: 272068800.

Date/timePositionNaut miles runAvg speedWind from/ knotsBaromVisibWave heightAir tempDewpointWater temp
2016-Jul-18 03:11N 46°52' E 037°25'3 4.3
2016-Jul-18 02:32N 46°50' E 037°22'4 4.3
2016-Jul-18 01:32N 46°48' E 037°17'6 4.4
2016-Jul-18 00:14N 46°44' E 037°11'3 4.0
2016-Jul-17 23:33N 46°43' E 037°07'6 4.2
2016-Jul-17 22:04N 46°39' E 036°60'12 0.3
2016-Jul-16 08:11N 46°46' E 037°14'20 4.9
2016-Jul-16 04:11N 47°02' E 037°31'4 5.9
2016-Jul-16 03:33N 47°05' E 037°34'1 1.2
2016-Jul-16 02:31N 47°06' E 037°35'0 0.0
2016-Jul-14 21:32N 47°06' E 037°35'0 0.0
2016-Jul-14 20:29N 47°06' E 037°35'0 0.0
2016-Jul-14 17:17N 47°06' E 037°35'7 1.3
2016-Jul-14 11:29N 46°59' E 037°30'5 4.5
2016-Jul-14 10:18N 46°54' E 037°28'3 4.3
2016-Jul-14 09:33N 46°52' E 037°25'8 4.0
2016-Jul-14 07:31N 46°46' E 037°15'4 3.9
2016-Jul-14 06:32N 46°44' E 037°11'4 4.1
2016-Jul-14 05:32N 46°42' E 037°06'8 4.2
2016-Jul-14 03:33N 46°37' E 036°56'5 4.3
2016-Jul-14 02:29N 46°35' E 036°51'4 4.1
2016-Jul-14 01:33N 46°36' E 036°45'4 3.9
2016-Jul-14 00:33N 46°40' E 036°44'5 4.1
2016-Jul-13 23:20N 46°45' E 036°46'2 0.1
2016-Jul-13 00:22N 46°44' E 036°45'1 1.3
2016-Jul-12 23:29N 46°42' E 036°45'0 0.0
2016-Jul-12 22:33N 46°42' E 036°45'0 0.0
2016-Jul-12 21:33N 46°42' E 036°45'0 0.0
2016-Jul-12 17:20N 46°43' E 036°45'0 0.0
2016-Jul-12 16:33N 46°43' E 036°45'7 2.2
2016-Jul-12 13:30N 46°36' E 036°46'5 3.6
2016-Jul-12 12:13N 46°36' E 036°53'3 4.9
2016-Jul-12 11:31N 46°38' E 036°57'5 4.2
2016-Jul-12 10:18N 46°41' E 037°03'33 1.1
2016-Jul-11 04:28N 47°06' E 037°35'4 3.8
2016-Jul-11 03:26N 47°02' E 037°32'  
Track history (hours):
 
Tides and Currents Weather Stations Pressure Air Temp Water Temp Dewpoint Dewpoint Depression Visibility Wind Speed Wind Dir Waves Ship Positions

Svyataya Anna

Last reported at 2016-Jul-18 03:11 UTC. Time now 2016-Jul-23 13:12 UTC.
Position N 46°52' E 037°25'.

Length 93 m; draft 3.2 m.

Type: Cargo ship. MMSI: 272068800.

Date/timePositionNaut miles runAvg speedWind from/ knotsBaromVisibWave heightAir tempDewpointWater temp
2016-Jul-18 03:11N 46°52' E 037°25'3 4.3
2016-Jul-18 02:32N 46°50' E 037°22'4 4.3
2016-Jul-18 01:32N 46°48' E 037°17'6 4.4
2016-Jul-18 00:14N 46°44' E 037°11'3 4.0
2016-Jul-17 23:33N 46°43' E 037°07'6 4.2
2016-Jul-17 22:04N 46°39' E 036°60'12 0.3
2016-Jul-16 08:11N 46°46' E 037°14'20 4.9
2016-Jul-16 04:11N 47°02' E 037°31'4 5.9
2016-Jul-16 03:33N 47°05' E 037°34'1 1.2
2016-Jul-16 02:31N 47°06' E 037°35'0 0.0
2016-Jul-14 21:32N 47°06' E 037°35'0 0.0
2016-Jul-14 20:29N 47°06' E 037°35'0 0.0
2016-Jul-14 17:17N 47°06' E 037°35'7 1.3
2016-Jul-14 11:29N 46°59' E 037°30'5 4.5
2016-Jul-14 10:18N 46°54' E 037°28'3 4.3
2016-Jul-14 09:33N 46°52' E 037°25'8 4.0
2016-Jul-14 07:31N 46°46' E 037°15'4 3.9
2016-Jul-14 06:32N 46°44' E 037°11'4 4.1
2016-Jul-14 05:32N 46°42' E 037°06'8 4.2
2016-Jul-14 03:33N 46°37' E 036°56'5 4.3
2016-Jul-14 02:29N 46°35' E 036°51'4 4.1
2016-Jul-14 01:33N 46°36' E 036°45'4 3.9
2016-Jul-14 00:33N 46°40' E 036°44'5 4.1
2016-Jul-13 23:20N 46°45' E 036°46'2 0.1
2016-Jul-13 00:22N 46°44' E 036°45'1 1.3
2016-Jul-12 23:29N 46°42' E 036°45'0 0.0
2016-Jul-12 22:33N 46°42' E 036°45'0 0.0
2016-Jul-12 21:33N 46°42' E 036°45'0 0.0
2016-Jul-12 17:20N 46°43' E 036°45'0 0.0
2016-Jul-12 16:33N 46°43' E 036°45'7 2.2
2016-Jul-12 13:30N 46°36' E 036°46'5 3.6
2016-Jul-12 12:13N 46°36' E 036°53'3 4.9
2016-Jul-12 11:31N 46°38' E 036°57'5 4.2
2016-Jul-12 10:18N 46°41' E 037°03'33 1.1
2016-Jul-11 04:28N 47°06' E 037°35'4 3.8
2016-Jul-11 03:26N 47°02' E 037°32'  

Dump ship's entire track history